sensor_id;sensor_type;location;lat;lon;timestamp;P1;durP1;ratioP1;P2;durP2;ratioP2
49123;SDS011;48506;48.202;16.274;2023-12-20T00:02:23;42.00;;;24.10;;
49123;SDS011;48506;48.202;16.274;2023-12-20T00:04:48;39.35;;;22.25;;
49123;SDS011;48506;48.202;16.274;2023-12-20T00:07:15;45.28;;;27.38;;
49123;SDS011;48506;48.202;16.274;2023-12-20T00:09:41;44.88;;;25.67;;
49123;SDS011;48506;48.202;16.274;2023-12-20T00:12:07;43.33;;;25.73;;
49123;SDS011;48506;48.202;16.274;2023-12-20T00:14:33;52.08;;;28.13;;
49123;SDS011;48506;48.202;16.274;2023-12-20T00:16:59;47.20;;;29.08;;
49123;SDS011;48506;48.202;16.274;2023-12-20T00:19:24;59.65;;;30.98;;
49123;SDS011;48506;48.202;16.274;2023-12-20T00:21:50;48.88;;;30.92;;
49123;SDS011;48506;48.202;16.274;2023-12-20T00:24:16;58.97;;;31.60;;
49123;SDS011;48506;48.202;16.274;2023-12-20T00:26:43;54.40;;;30.35;;
49123;SDS011;48506;48.202;16.274;2023-12-20T00:29:08;55.83;;;32.80;;
49123;SDS011;48506;48.202;16.274;2023-12-20T00:31:34;51.58;;;31.42;;
49123;SDS011;48506;48.202;16.274;2023-12-20T00:34:01;61.35;;;34.05;;
49123;SDS011;48506;48.202;16.274;2023-12-20T00:36:26;55.33;;;31.00;;
49123;SDS011;48506;48.202;16.274;2023-12-20T00:38:52;59.03;;;31.85;;
49123;SDS011;48506;48.202;16.274;2023-12-20T00:41:18;50.22;;;29.70;;
49123;SDS011;48506;48.202;16.274;2023-12-20T00:43:44;57.08;;;31.38;;
49123;SDS011;48506;48.202;16.274;2023-12-20T00:46:10;53.85;;;29.20;;
49123;SDS011;48506;48.202;16.274;2023-12-20T00:48:35;50.63;;;31.85;;
49123;SDS011;48506;48.202;16.274;2023-12-20T00:51:01;53.50;;;30.90;;
49123;SDS011;48506;48.202;16.274;2023-12-20T00:53:28;52.50;;;30.90;;
49123;SDS011;48506;48.202;16.274;2023-12-20T00:55:54;56.75;;;31.25;;
49123;SDS011;48506;48.202;16.274;2023-12-20T00:58:21;47.63;;;27.75;;
49123;SDS011;48506;48.202;16.274;2023-12-20T01:00:47;53.10;;;30.60;;
49123;SDS011;48506;48.202;16.274;2023-12-20T01:03:12;53.13;;;30.42;;
49123;SDS011;48506;48.202;16.274;2023-12-20T01:05:39;46.38;;;29.02;;
49123;SDS011;48506;48.202;16.274;2023-12-20T01:08:05;48.40;;;27.05;;
49123;SDS011;48506;48.202;16.274;2023-12-20T01:10:31;42.55;;;25.05;;
49123;SDS011;48506;48.202;16.274;2023-12-20T01:12:57;45.90;;;26.35;;
49123;SDS011;48506;48.202;16.274;2023-12-20T01:15:23;44.13;;;25.25;;
49123;SDS011;48506;48.202;16.274;2023-12-20T01:17:48;43.35;;;23.75;;
49123;SDS011;48506;48.202;16.274;2023-12-20T01:20:15;42.35;;;24.45;;
49123;SDS011;48506;48.202;16.274;2023-12-20T01:22:41;42.63;;;23.90;;
49123;SDS011;48506;48.202;16.274;2023-12-20T01:25:08;40.78;;;23.77;;
49123;SDS011;48506;48.202;16.274;2023-12-20T01:27:34;40.03;;;23.92;;
49123;SDS011;48506;48.202;16.274;2023-12-20T01:30:00;41.67;;;23.60;;
49123;SDS011;48506;48.202;16.274;2023-12-20T01:32:25;47.50;;;25.75;;
49123;SDS011;48506;48.202;16.274;2023-12-20T01:34:51;42.28;;;24.75;;
49123;SDS011;48506;48.202;16.274;2023-12-20T01:37:17;44.55;;;26.35;;
49123;SDS011;48506;48.202;16.274;2023-12-20T01:39:43;57.58;;;28.35;;
49123;SDS011;48506;48.202;16.274;2023-12-20T01:42:09;57.63;;;30.33;;
49123;SDS011;48506;48.202;16.274;2023-12-20T01:44:35;52.25;;;31.20;;
49123;SDS011;48506;48.202;16.274;2023-12-20T01:47:00;49.15;;;30.52;;
49123;SDS011;48506;48.202;16.274;2023-12-20T01:49:27;50.42;;;31.45;;
49123;SDS011;48506;48.202;16.274;2023-12-20T01:51:53;62.72;;;34.88;;
49123;SDS011;48506;48.202;16.274;2023-12-20T01:54:20;63.85;;;34.28;;
49123;SDS011;48506;48.202;16.274;2023-12-20T01:56:46;60.58;;;34.17;;
49123;SDS011;48506;48.202;16.274;2023-12-20T01:59:12;60.60;;;35.80;;
49123;SDS011;48506;48.202;16.274;2023-12-20T02:01:38;61.65;;;35.67;;
49123;SDS011;48506;48.202;16.274;2023-12-20T02:04:04;63.33;;;35.03;;
49123;SDS011;48506;48.202;16.274;2023-12-20T02:06:30;67.97;;;36.60;;
49123;SDS011;48506;48.202;16.274;2023-12-20T02:08:59;64.82;;;34.65;;
49123;SDS011;48506;48.202;16.274;2023-12-20T02:11:25;57.33;;;34.40;;
49123;SDS011;48506;48.202;16.274;2023-12-20T02:13:53;57.78;;;34.38;;
49123;SDS011;48506;48.202;16.274;2023-12-20T02:16:19;48.67;;;29.25;;
49123;SDS011;48506;48.202;16.274;2023-12-20T02:18:45;46.97;;;29.33;;
49123;SDS011;48506;48.202;16.274;2023-12-20T02:21:12;33.38;;;18.33;;
49123;SDS011;48506;48.202;16.274;2023-12-20T02:23:37;20.25;;;13.23;;
49123;SDS011;48506;48.202;16.274;2023-12-20T02:26:03;14.70;;;8.00;;
49123;SDS011;48506;48.202;16.274;2023-12-20T02:28:31;6.40;;;3.03;;
49123;SDS011;48506;48.202;16.274;2023-12-20T02:30:57;4.10;;;2.65;;
49123;SDS011;48506;48.202;16.274;2023-12-20T02:33:23;6.00;;;2.03;;
49123;SDS011;48506;48.202;16.274;2023-12-20T02:35:49;2.72;;;1.70;;
49123;SDS011;48506;48.202;16.274;2023-12-20T02:38:15;5.07;;;2.00;;
49123;SDS011;48506;48.202;16.274;2023-12-20T02:40:41;4.90;;;2.17;;
49123;SDS011;48506;48.202;16.274;2023-12-20T02:43:06;3.50;;;1.70;;
49123;SDS011;48506;48.202;16.274;2023-12-20T02:45:32;4.13;;;1.98;;
49123;SDS011;48506;48.202;16.274;2023-12-20T02:47:58;2.63;;;2.20;;
49123;SDS011;48506;48.202;16.274;2023-12-20T02:50:24;2.58;;;2.10;;
49123;SDS011;48506;48.202;16.274;2023-12-20T02:52:50;3.50;;;1.50;;
49123;SDS011;48506;48.202;16.274;2023-12-20T02:55:16;2.92;;;1.92;;
49123;SDS011;48506;48.202;16.274;2023-12-20T02:57:42;1.85;;;1.50;;
49123;SDS011;48506;48.202;16.274;2023-12-20T03:00:10;3.50;;;2.10;;
49123;SDS011;48506;48.202;16.274;2023-12-20T03:02:37;9.25;;;1.90;;
49123;SDS011;48506;48.202;16.274;2023-12-20T03:05:03;6.13;;;2.25;;
49123;SDS011;48506;48.202;16.274;2023-12-20T03:07:29;3.40;;;1.92;;
49123;SDS011;48506;48.202;16.274;2023-12-20T03:09:54;4.65;;;2.10;;
49123;SDS011;48506;48.202;16.274;2023-12-20T03:12:20;2.90;;;2.25;;
49123;SDS011;48506;48.202;16.274;2023-12-20T03:14:47;3.40;;;2.00;;
49123;SDS011;48506;48.202;16.274;2023-12-20T03:17:13;2.22;;;1.70;;
49123;SDS011;48506;48.202;16.274;2023-12-20T03:19:39;3.58;;;2.28;;
49123;SDS011;48506;48.202;16.274;2023-12-20T03:22:05;3.65;;;2.00;;
49123;SDS011;48506;48.202;16.274;2023-12-20T03:24:31;3.00;;;2.20;;
49123;SDS011;48506;48.202;16.274;2023-12-20T03:26:57;5.10;;;2.70;;
49123;SDS011;48506;48.202;16.274;2023-12-20T03:29:23;3.40;;;1.92;;
49123;SDS011;48506;48.202;16.274;2023-12-20T03:31:49;4.95;;;2.90;;
49123;SDS011;48506;48.202;16.274;2023-12-20T03:34:15;4.18;;;2.92;;
49123;SDS011;48506;48.202;16.274;2023-12-20T03:36:41;3.45;;;2.05;;
49123;SDS011;48506;48.202;16.274;2023-12-20T03:39:06;4.43;;;2.38;;
49123;SDS011;48506;48.202;16.274;2023-12-20T03:41:32;3.22;;;2.00;;
49123;SDS011;48506;48.202;16.274;2023-12-20T03:43:58;4.88;;;2.72;;
49123;SDS011;48506;48.202;16.274;2023-12-20T03:46:24;2.90;;;2.13;;
49123;SDS011;48506;48.202;16.274;2023-12-20T03:48:50;3.70;;;2.00;;
49123;SDS011;48506;48.202;16.274;2023-12-20T03:51:16;3.90;;;2.35;;
49123;SDS011;48506;48.202;16.274;2023-12-20T03:53:42;3.58;;;2.80;;
49123;SDS011;48506;48.202;16.274;2023-12-20T03:56:07;3.90;;;2.92;;
49123;SDS011;48506;48.202;16.274;2023-12-20T03:58:33;3.72;;;2.10;;
49123;SDS011;48506;48.202;16.274;2023-12-20T04:00:59;5.88;;;2.60;;
49123;SDS011;48506;48.202;16.274;2023-12-20T04:03:25;2.85;;;2.10;;
49123;SDS011;48506;48.202;16.274;2023-12-20T04:05:51;3.55;;;2.33;;
49123;SDS011;48506;48.202;16.274;2023-12-20T04:08:17;3.65;;;2.20;;
49123;SDS011;48506;48.202;16.274;2023-12-20T04:10:43;6.63;;;4.50;;
49123;SDS011;48506;48.202;16.274;2023-12-20T04:13:08;10.00;;;6.70;;
49123;SDS011;48506;48.202;16.274;2023-12-20T04:15:34;11.10;;;7.72;;
49123;SDS011;48506;48.202;16.274;2023-12-20T04:18:01;11.15;;;7.95;;
49123;SDS011;48506;48.202;16.274;2023-12-20T04:20:27;11.93;;;8.70;;
49123;SDS011;48506;48.202;16.274;2023-12-20T04:22:52;11.52;;;7.80;;
49123;SDS011;48506;48.202;16.274;2023-12-20T04:25:18;11.18;;;7.82;;
49123;SDS011;48506;48.202;16.274;2023-12-20T04:27:44;8.98;;;6.43;;
49123;SDS011;48506;48.202;16.274;2023-12-20T04:30:10;9.85;;;6.95;;
49123;SDS011;48506;48.202;16.274;2023-12-20T04:32:36;13.10;;;8.02;;
49123;SDS011;48506;48.202;16.274;2023-12-20T04:35:02;14.50;;;9.38;;
49123;SDS011;48506;48.202;16.274;2023-12-20T04:37:28;9.25;;;6.90;;
49123;SDS011;48506;48.202;16.274;2023-12-20T04:39:54;7.82;;;6.13;;
49123;SDS011;48506;48.202;16.274;2023-12-20T04:42:20;8.40;;;4.47;;
49123;SDS011;48506;48.202;16.274;2023-12-20T04:44:46;5.93;;;3.55;;
49123;SDS011;48506;48.202;16.274;2023-12-20T04:47:11;3.67;;;2.17;;
49123;SDS011;48506;48.202;16.274;2023-12-20T04:49:37;5.15;;;2.83;;
49123;SDS011;48506;48.202;16.274;2023-12-20T04:52:03;2.92;;;2.10;;
49123;SDS011;48506;48.202;16.274;2023-12-20T04:54:29;3.75;;;2.53;;
49123;SDS011;48506;48.202;16.274;2023-12-20T04:56:55;6.25;;;2.58;;
49123;SDS011;48506;48.202;16.274;2023-12-20T04:59:21;4.53;;;2.80;;
49123;SDS011;48506;48.202;16.274;2023-12-20T05:01:47;6.10;;;3.55;;
49123;SDS011;48506;48.202;16.274;2023-12-20T05:04:13;4.13;;;2.55;;
49123;SDS011;48506;48.202;16.274;2023-12-20T05:06:39;4.22;;;2.65;;
49123;SDS011;48506;48.202;16.274;2023-12-20T05:09:05;4.15;;;2.75;;
49123;SDS011;48506;48.202;16.274;2023-12-20T05:11:30;4.57;;;3.00;;
49123;SDS011;48506;48.202;16.274;2023-12-20T05:13:56;6.40;;;2.92;;
49123;SDS011;48506;48.202;16.274;2023-12-20T05:16:22;5.65;;;2.83;;
49123;SDS011;48506;48.202;16.274;2023-12-20T05:18:48;6.25;;;2.75;;
49123;SDS011;48506;48.202;16.274;2023-12-20T05:21:17;7.03;;;4.05;;
49123;SDS011;48506;48.202;16.274;2023-12-20T05:23:43;5.00;;;3.13;;
49123;SDS011;48506;48.202;16.274;2023-12-20T05:26:09;6.95;;;3.55;;
49123;SDS011;48506;48.202;16.274;2023-12-20T05:28:34;8.00;;;2.63;;
49123;SDS011;48506;48.202;16.274;2023-12-20T05:31:00;7.20;;;3.30;;
49123;SDS011;48506;48.202;16.274;2023-12-20T05:33:26;7.68;;;3.45;;
49123;SDS011;48506;48.202;16.274;2023-12-20T05:35:52;5.88;;;3.80;;
49123;SDS011;48506;48.202;16.274;2023-12-20T05:38:19;15.70;;;3.92;;
49123;SDS011;48506;48.202;16.274;2023-12-20T05:40:45;5.38;;;3.15;;
49123;SDS011;48506;48.202;16.274;2023-12-20T05:43:11;4.97;;;3.45;;
49123;SDS011;48506;48.202;16.274;2023-12-20T05:45:37;4.65;;;3.20;;
49123;SDS011;48506;48.202;16.274;2023-12-20T05:48:03;4.40;;;2.90;;
49123;SDS011;48506;48.202;16.274;2023-12-20T05:50:29;8.25;;;3.38;;
49123;SDS011;48506;48.202;16.274;2023-12-20T05:52:55;4.72;;;2.85;;
49123;SDS011;48506;48.202;16.274;2023-12-20T05:55:21;5.03;;;2.92;;
49123;SDS011;48506;48.202;16.274;2023-12-20T05:57:47;6.35;;;3.17;;
49123;SDS011;48506;48.202;16.274;2023-12-20T06:00:13;6.50;;;3.55;;
49123;SDS011;48506;48.202;16.274;2023-12-20T06:02:40;5.70;;;3.05;;
49123;SDS011;48506;48.202;16.274;2023-12-20T06:05:06;6.82;;;3.20;;
49123;SDS011;48506;48.202;16.274;2023-12-20T06:07:33;5.57;;;3.72;;
49123;SDS011;48506;48.202;16.274;2023-12-20T06:09:58;5.03;;;2.80;;
49123;SDS011;48506;48.202;16.274;2023-12-20T06:12:24;3.80;;;2.70;;
49123;SDS011;48506;48.202;16.274;2023-12-20T06:14:52;5.03;;;3.20;;
49123;SDS011;48506;48.202;16.274;2023-12-20T06:17:17;4.13;;;3.17;;
49123;SDS011;48506;48.202;16.274;2023-12-20T06:19:43;5.03;;;3.00;;
49123;SDS011;48506;48.202;16.274;2023-12-20T06:22:13;4.38;;;3.10;;
49123;SDS011;48506;48.202;16.274;2023-12-20T06:24:40;5.50;;;2.88;;
49123;SDS011;48506;48.202;16.274;2023-12-20T06:27:06;4.45;;;2.75;;
49123;SDS011;48506;48.202;16.274;2023-12-20T06:29:32;5.03;;;2.67;;
49123;SDS011;48506;48.202;16.274;2023-12-20T06:31:59;4.32;;;2.80;;
49123;SDS011;48506;48.202;16.274;2023-12-20T06:34:25;6.97;;;3.10;;
49123;SDS011;48506;48.202;16.274;2023-12-20T06:36:51;4.05;;;2.95;;
49123;SDS011;48506;48.202;16.274;2023-12-20T06:39:17;3.13;;;2.25;;
49123;SDS011;48506;48.202;16.274;2023-12-20T06:41:43;5.00;;;3.45;;
49123;SDS011;48506;48.202;16.274;2023-12-20T06:44:08;5.68;;;2.90;;
49123;SDS011;48506;48.202;16.274;2023-12-20T06:46:34;4.82;;;2.95;;
49123;SDS011;48506;48.202;16.274;2023-12-20T06:49:00;4.22;;;2.40;;
49123;SDS011;48506;48.202;16.274;2023-12-20T06:51:26;7.20;;;3.20;;
49123;SDS011;48506;48.202;16.274;2023-12-20T06:53:52;6.30;;;2.85;;
49123;SDS011;48506;48.202;16.274;2023-12-20T06:56:18;3.63;;;2.47;;
49123;SDS011;48506;48.202;16.274;2023-12-20T06:58:44;4.40;;;2.30;;
49123;SDS011;48506;48.202;16.274;2023-12-20T07:01:14;4.07;;;2.60;;
49123;SDS011;48506;48.202;16.274;2023-12-20T07:03:40;4.95;;;2.72;;
49123;SDS011;48506;48.202;16.274;2023-12-20T07:06:06;6.05;;;3.65;;
49123;SDS011;48506;48.202;16.274;2023-12-20T07:08:33;4.75;;;2.90;;
49123;SDS011;48506;48.202;16.274;2023-12-20T07:10:58;4.95;;;2.42;;
49123;SDS011;48506;48.202;16.274;2023-12-20T07:13:24;4.20;;;2.92;;
49123;SDS011;48506;48.202;16.274;2023-12-20T07:15:50;4.45;;;3.25;;
49123;SDS011;48506;48.202;16.274;2023-12-20T07:18:16;3.53;;;2.55;;
49123;SDS011;48506;48.202;16.274;2023-12-20T07:20:42;4.57;;;2.92;;
49123;SDS011;48506;48.202;16.274;2023-12-20T07:23:08;5.40;;;3.28;;
49123;SDS011;48506;48.202;16.274;2023-12-20T07:25:34;7.55;;;3.58;;
49123;SDS011;48506;48.202;16.274;2023-12-20T07:28:00;6.82;;;4.05;;
49123;SDS011;48506;48.202;16.274;2023-12-20T07:30:26;8.52;;;3.67;;
49123;SDS011;48506;48.202;16.274;2023-12-20T07:32:52;7.40;;;4.50;;
49123;SDS011;48506;48.202;16.274;2023-12-20T07:35:18;5.63;;;3.78;;
49123;SDS011;48506;48.202;16.274;2023-12-20T07:37:44;6.32;;;3.45;;
49123;SDS011;48506;48.202;16.274;2023-12-20T07:40:10;5.93;;;3.63;;
49123;SDS011;48506;48.202;16.274;2023-12-20T07:42:36;4.10;;;2.95;;
49123;SDS011;48506;48.202;16.274;2023-12-20T07:45:02;5.80;;;4.13;;
49123;SDS011;48506;48.202;16.274;2023-12-20T07:47:28;6.18;;;3.53;;
49123;SDS011;48506;48.202;16.274;2023-12-20T07:49:54;5.60;;;3.25;;
49123;SDS011;48506;48.202;16.274;2023-12-20T07:52:20;9.18;;;4.30;;
49123;SDS011;48506;48.202;16.274;2023-12-20T07:54:48;5.82;;;3.78;;
49123;SDS011;48506;48.202;16.274;2023-12-20T07:57:14;4.70;;;3.40;;
49123;SDS011;48506;48.202;16.274;2023-12-20T07:59:40;6.80;;;3.08;;
49123;SDS011;48506;48.202;16.274;2023-12-20T08:02:05;9.02;;;4.70;;
49123;SDS011;48506;48.202;16.274;2023-12-20T08:04:31;5.95;;;3.88;;
49123;SDS011;48506;48.202;16.274;2023-12-20T08:06:58;7.35;;;4.30;;
49123;SDS011;48506;48.202;16.274;2023-12-20T08:09:24;7.28;;;3.65;;
49123;SDS011;48506;48.202;16.274;2023-12-20T08:11:49;6.82;;;4.30;;
49123;SDS011;48506;48.202;16.274;2023-12-20T08:14:15;9.00;;;3.42;;
49123;SDS011;48506;48.202;16.274;2023-12-20T08:16:41;5.95;;;3.72;;
49123;SDS011;48506;48.202;16.274;2023-12-20T08:19:07;7.45;;;3.85;;
49123;SDS011;48506;48.202;16.274;2023-12-20T08:21:33;4.95;;;3.72;;
49123;SDS011;48506;48.202;16.274;2023-12-20T08:24:00;5.85;;;3.78;;
49123;SDS011;48506;48.202;16.274;2023-12-20T08:26:26;10.02;;;4.32;;
49123;SDS011;48506;48.202;16.274;2023-12-20T08:28:52;5.90;;;3.63;;
49123;SDS011;48506;48.202;16.274;2023-12-20T08:31:18;5.82;;;4.10;;
49123;SDS011;48506;48.202;16.274;2023-12-20T08:33:45;10.80;;;4.22;;
49123;SDS011;48506;48.202;16.274;2023-12-20T08:36:12;6.07;;;3.60;;
49123;SDS011;48506;48.202;16.274;2023-12-20T08:38:38;6.55;;;3.78;;
49123;SDS011;48506;48.202;16.274;2023-12-20T08:41:04;5.53;;;3.85;;
49123;SDS011;48506;48.202;16.274;2023-12-20T08:43:31;4.90;;;3.75;;
49123;SDS011;48506;48.202;16.274;2023-12-20T08:45:59;7.90;;;3.83;;
49123;SDS011;48506;48.202;16.274;2023-12-20T08:48:25;4.90;;;3.53;;
49123;SDS011;48506;48.202;16.274;2023-12-20T08:50:51;8.90;;;3.60;;
49123;SDS011;48506;48.202;16.274;2023-12-20T08:53:18;5.38;;;3.10;;
49123;SDS011;48506;48.202;16.274;2023-12-20T08:55:44;8.55;;;3.92;;
49123;SDS011;48506;48.202;16.274;2023-12-20T08:58:10;6.38;;;3.60;;
49123;SDS011;48506;48.202;16.274;2023-12-20T09:00:36;7.63;;;4.03;;
49123;SDS011;48506;48.202;16.274;2023-12-20T09:03:04;5.43;;;3.47;;
49123;SDS011;48506;48.202;16.274;2023-12-20T09:05:29;6.10;;;3.70;;
49123;SDS011;48506;48.202;16.274;2023-12-20T09:07:55;5.68;;;3.45;;
49123;SDS011;48506;48.202;16.274;2023-12-20T09:10:21;4.78;;;3.67;;
49123;SDS011;48506;48.202;16.274;2023-12-20T09:12:50;7.07;;;3.53;;
49123;SDS011;48506;48.202;16.274;2023-12-20T09:15:22;5.18;;;3.08;;
49123;SDS011;48506;48.202;16.274;2023-12-20T09:17:49;6.13;;;2.78;;
49123;SDS011;48506;48.202;16.274;2023-12-20T09:20:15;4.40;;;2.88;;
49123;SDS011;48506;48.202;16.274;2023-12-20T09:22:40;4.53;;;3.05;;
49123;SDS011;48506;48.202;16.274;2023-12-20T09:25:09;6.65;;;2.67;;
49123;SDS011;48506;48.202;16.274;2023-12-20T09:27:36;4.78;;;2.40;;
49123;SDS011;48506;48.202;16.274;2023-12-20T09:30:02;4.63;;;1.92;;
49123;SDS011;48506;48.202;16.274;2023-12-20T09:32:30;2.13;;;1.75;;
49123;SDS011;48506;48.202;16.274;2023-12-20T09:34:56;2.28;;;2.08;;
49123;SDS011;48506;48.202;16.274;2023-12-20T09:37:25;2.53;;;1.65;;
49123;SDS011;48506;48.202;16.274;2023-12-20T09:39:52;4.20;;;2.03;;
49123;SDS011;48506;48.202;16.274;2023-12-20T09:42:20;2.65;;;2.05;;
49123;SDS011;48506;48.202;16.274;2023-12-20T09:44:55;2.97;;;1.75;;
49123;SDS011;48506;48.202;16.274;2023-12-20T09:47:23;3.20;;;1.98;;
49123;SDS011;48506;48.202;16.274;2023-12-20T09:49:50;5.10;;;2.08;;
49123;SDS011;48506;48.202;16.274;2023-12-20T09:52:18;2.53;;;2.20;;
49123;SDS011;48506;48.202;16.274;2023-12-20T09:54:44;3.55;;;2.08;;
49123;SDS011;48506;48.202;16.274;2023-12-20T09:59:40;4.47;;;2.78;;
49123;SDS011;48506;48.202;16.274;2023-12-20T10:02:07;3.08;;;2.50;;
49123;SDS011;48506;48.202;16.274;2023-12-20T10:04:40;3.65;;;2.40;;
49123;SDS011;48506;48.202;16.274;2023-12-20T10:07:12;3.63;;;2.95;;
49123;SDS011;48506;48.202;16.274;2023-12-20T10:09:38;4.38;;;3.60;;
49123;SDS011;48506;48.202;16.274;2023-12-20T10:12:05;6.90;;;3.58;;
49123;SDS011;48506;48.202;16.274;2023-12-20T10:14:32;3.33;;;2.83;;
49123;SDS011;48506;48.202;16.274;2023-12-20T10:17:04;5.10;;;3.65;;
49123;SDS011;48506;48.202;16.274;2023-12-20T10:19:34;3.92;;;2.92;;
49123;SDS011;48506;48.202;16.274;2023-12-20T10:22:00;3.22;;;2.67;;
49123;SDS011;48506;48.202;16.274;2023-12-20T10:24:29;4.22;;;3.05;;
49123;SDS011;48506;48.202;16.274;2023-12-20T10:27:02;2.75;;;2.33;;
49123;SDS011;48506;48.202;16.274;2023-12-20T10:29:37;3.38;;;2.20;;
49123;SDS011;48506;48.202;16.274;2023-12-20T10:35:02;2.55;;;2.28;;
49123;SDS011;48506;48.202;16.274;2023-12-20T10:37:28;2.75;;;1.90;;
49123;SDS011;48506;48.202;16.274;2023-12-20T10:39:54;2.95;;;2.65;;
49123;SDS011;48506;48.202;16.274;2023-12-20T10:42:26;2.20;;;1.80;;
49123;SDS011;48506;48.202;16.274;2023-12-20T10:44:52;4.30;;;2.22;;
49123;SDS011;48506;48.202;16.274;2023-12-20T10:47:19;2.85;;;1.90;;
49123;SDS011;48506;48.202;16.274;2023-12-20T10:49:46;3.25;;;2.40;;
49123;SDS011;48506;48.202;16.274;2023-12-20T10:52:12;2.72;;;2.22;;
49123;SDS011;48506;48.202;16.274;2023-12-20T10:54:41;3.50;;;2.40;;
49123;SDS011;48506;48.202;16.274;2023-12-20T10:57:07;3.95;;;2.53;;
49123;SDS011;48506;48.202;16.274;2023-12-20T10:59:33;2.47;;;2.08;;
49123;SDS011;48506;48.202;16.274;2023-12-20T11:02:02;3.95;;;2.63;;
49123;SDS011;48506;48.202;16.274;2023-12-20T11:04:36;3.25;;;2.60;;
49123;SDS011;48506;48.202;16.274;2023-12-20T11:07:18;4.32;;;2.72;;
49123;SDS011;48506;48.202;16.274;2023-12-20T11:10:08;2.70;;;2.33;;
49123;SDS011;48506;48.202;16.274;2023-12-20T11:12:48;2.85;;;2.45;;
49123;SDS011;48506;48.202;16.274;2023-12-20T11:15:35;3.38;;;2.08;;
49123;SDS011;48506;48.202;16.274;2023-12-20T11:18:03;2.85;;;2.20;;
49123;SDS011;48506;48.202;16.274;2023-12-20T11:20:35;3.22;;;1.77;;
49123;SDS011;48506;48.202;16.274;2023-12-20T11:23:03;8.98;;;2.75;;
49123;SDS011;48506;48.202;16.274;2023-12-20T11:25:30;3.40;;;1.98;;
49123;SDS011;48506;48.202;16.274;2023-12-20T11:28:22;2.75;;;1.73;;
49123;SDS011;48506;48.202;16.274;2023-12-20T11:33:23;2.50;;;1.73;;
49123;SDS011;48506;48.202;16.274;2023-12-20T11:35:50;2.63;;;1.65;;
49123;SDS011;48506;48.202;16.274;2023-12-20T11:38:17;2.15;;;1.67;;
49123;SDS011;48506;48.202;16.274;2023-12-20T11:40:47;2.22;;;1.70;;
49123;SDS011;48506;48.202;16.274;2023-12-20T11:46:20;1.73;;;1.52;;
49123;SDS011;48506;48.202;16.274;2023-12-20T11:48:46;2.33;;;1.63;;
49123;SDS011;48506;48.202;16.274;2023-12-20T11:51:13;2.58;;;1.77;;
49123;SDS011;48506;48.202;16.274;2023-12-20T11:53:42;2.97;;;2.00;;
49123;SDS011;48506;48.202;16.274;2023-12-20T11:56:08;1.73;;;1.50;;
49123;SDS011;48506;48.202;16.274;2023-12-20T11:58:35;2.70;;;1.73;;
49123;SDS011;48506;48.202;16.274;2023-12-20T12:01:02;2.33;;;1.70;;
49123;SDS011;48506;48.202;16.274;2023-12-20T12:03:29;2.53;;;1.50;;
49123;SDS011;48506;48.202;16.274;2023-12-20T12:05:55;2.20;;;1.40;;
49123;SDS011;48506;48.202;16.274;2023-12-20T12:08:23;1.77;;;1.25;;
49123;SDS011;48506;48.202;16.274;2023-12-20T12:10:49;1.70;;;1.00;;
49123;SDS011;48506;48.202;16.274;2023-12-20T12:13:15;1.60;;;1.02;;
49123;SDS011;48506;48.202;16.274;2023-12-20T12:15:41;1.55;;;1.20;;
49123;SDS011;48506;48.202;16.274;2023-12-20T12:18:08;1.92;;;1.20;;
49123;SDS011;48506;48.202;16.274;2023-12-20T12:20:34;1.33;;;1.15;;
49123;SDS011;48506;48.202;16.274;2023-12-20T12:23:03;1.52;;;1.00;;
49123;SDS011;48506;48.202;16.274;2023-12-20T12:25:31;2.10;;;1.30;;
49123;SDS011;48506;48.202;16.274;2023-12-20T12:28:00;1.27;;;1.00;;
49123;SDS011;48506;48.202;16.274;2023-12-20T12:30:26;1.55;;;1.15;;
49123;SDS011;48506;48.202;16.274;2023-12-20T12:32:53;2.15;;;1.30;;
49123;SDS011;48506;48.202;16.274;2023-12-20T12:35:21;2.83;;;1.48;;
49123;SDS011;48506;48.202;16.274;2023-12-20T12:37:47;1.75;;;1.13;;
49123;SDS011;48506;48.202;16.274;2023-12-20T12:40:13;1.98;;;1.20;;
49123;SDS011;48506;48.202;16.274;2023-12-20T12:42:41;2.88;;;1.30;;
49123;SDS011;48506;48.202;16.274;2023-12-20T12:45:08;1.73;;;1.25;;
49123;SDS011;48506;48.202;16.274;2023-12-20T12:47:34;2.38;;;1.50;;
49123;SDS011;48506;48.202;16.274;2023-12-20T12:50:01;1.73;;;1.35;;
49123;SDS011;48506;48.202;16.274;2023-12-20T12:52:28;1.77;;;1.42;;
49123;SDS011;48506;48.202;16.274;2023-12-20T12:54:53;1.38;;;1.27;;
49123;SDS011;48506;48.202;16.274;2023-12-20T12:57:19;2.25;;;1.45;;
49123;SDS011;48506;48.202;16.274;2023-12-20T12:59:46;2.65;;;2.13;;
49123;SDS011;48506;48.202;16.274;2023-12-20T13:02:12;2.45;;;1.17;;
49123;SDS011;48506;48.202;16.274;2023-12-20T13:04:39;1.45;;;1.27;;
49123;SDS011;48506;48.202;16.274;2023-12-20T13:07:06;3.40;;;1.75;;
49123;SDS011;48506;48.202;16.274;2023-12-20T13:09:33;2.97;;;1.70;;
49123;SDS011;48506;48.202;16.274;2023-12-20T13:11:58;2.83;;;1.50;;
49123;SDS011;48506;48.202;16.274;2023-12-20T13:14:24;1.63;;;1.50;;
49123;SDS011;48506;48.202;16.274;2023-12-20T13:16:50;2.65;;;1.60;;
49123;SDS011;48506;48.202;16.274;2023-12-20T13:19:16;3.53;;;1.52;;
49123;SDS011;48506;48.202;16.274;2023-12-20T13:21:42;2.20;;;1.35;;
49123;SDS011;48506;48.202;16.274;2023-12-20T13:24:08;2.03;;;1.30;;
49123;SDS011;48506;48.202;16.274;2023-12-20T13:26:34;1.30;;;1.20;;
49123;SDS011;48506;48.202;16.274;2023-12-20T13:29:00;3.10;;;1.50;;
49123;SDS011;48506;48.202;16.274;2023-12-20T13:31:26;3.28;;;1.30;;
49123;SDS011;48506;48.202;16.274;2023-12-20T13:33:52;1.45;;;1.20;;
49123;SDS011;48506;48.202;16.274;2023-12-20T13:36:18;1.40;;;1.20;;
49123;SDS011;48506;48.202;16.274;2023-12-20T13:38:44;1.65;;;1.05;;
49123;SDS011;48506;48.202;16.274;2023-12-20T13:41:10;2.25;;;1.35;;
49123;SDS011;48506;48.202;16.274;2023-12-20T13:43:36;1.95;;;1.17;;
49123;SDS011;48506;48.202;16.274;2023-12-20T13:46:01;2.67;;;1.00;;
49123;SDS011;48506;48.202;16.274;2023-12-20T13:48:27;1.80;;;1.40;;
49123;SDS011;48506;48.202;16.274;2023-12-20T13:50:53;1.52;;;1.27;;
49123;SDS011;48506;48.202;16.274;2023-12-20T13:53:20;3.67;;;1.20;;
49123;SDS011;48506;48.202;16.274;2023-12-20T13:55:46;1.50;;;1.38;;
49123;SDS011;48506;48.202;16.274;2023-12-20T13:58:12;5.25;;;1.55;;
49123;SDS011;48506;48.202;16.274;2023-12-20T14:00:38;2.92;;;1.38;;
49123;SDS011;48506;48.202;16.274;2023-12-20T14:03:04;2.05;;;1.40;;
49123;SDS011;48506;48.202;16.274;2023-12-20T14:05:30;1.33;;;1.23;;
49123;SDS011;48506;48.202;16.274;2023-12-20T14:07:56;1.20;;;1.10;;
49123;SDS011;48506;48.202;16.274;2023-12-20T14:10:23;1.35;;;1.10;;
49123;SDS011;48506;48.202;16.274;2023-12-20T14:12:51;1.73;;;1.23;;
49123;SDS011;48506;48.202;16.274;2023-12-20T14:15:18;1.92;;;0.98;;
49123;SDS011;48506;48.202;16.274;2023-12-20T14:17:44;1.10;;;0.93;;
49123;SDS011;48506;48.202;16.274;2023-12-20T14:20:10;2.85;;;1.35;;
49123;SDS011;48506;48.202;16.274;2023-12-20T14:22:41;3.67;;;1.30;;
49123;SDS011;48506;48.202;16.274;2023-12-20T14:25:11;1.25;;;1.00;;
49123;SDS011;48506;48.202;16.274;2023-12-20T14:27:39;2.33;;;1.00;;
49123;SDS011;48506;48.202;16.274;2023-12-20T14:30:06;2.63;;;1.33;;
49123;SDS011;48506;48.202;16.274;2023-12-20T14:32:34;1.00;;;0.98;;
49123;SDS011;48506;48.202;16.274;2023-12-20T14:35:06;1.00;;;0.90;;
49123;SDS011;48506;48.202;16.274;2023-12-20T14:37:33;1.73;;;1.50;;
49123;SDS011;48506;48.202;16.274;2023-12-20T14:40:00;1.65;;;1.27;;